Aérodrome :
LOGIN :

S'inscrire | Disclaimer

   EN    FR    IT 

 










Légende :    VFR   VFR Marginal   IFR   IFR Intensif   IFR Très Intensif
Visi : 
Plafond : 
>= 8 km
>= 3000ft
5 à 8 km
1000 à 3000 ft
1500m à 5 km
500 à 1000 ft
800 à 1500m
200 à 500 ft
< 800m
< 200 ft
Symboles :   Orages  Brouillard  Fortes neiges  Fortes précipitations  Vent > 20 kt
SIGMETs :   Divers  Orages  Givrage  Turbulence  Onde Orograph.  Cendres Volcan.







- Altitude de l'aérodrome : 1197 ft
- Code IATA : SPM


ETAD - Spangdahlem Ab

DERNIER METAR :
  • 230656Z AUTO 20014KT 9999 FEW090 09/06 A2968 RMK AO2 SLP048 T00890058 TSNO $

METARs EXPIRÉS :
  • 230556Z AUTO 20017KT 9999 FEW200 08/06 A2967 RMK AO2 SLP045 T00820055 10082 20044 55008 TSNO $
  • 230456Z AUTO 20015G22KT 9999 CLR 08/05 A2966 RMK AO2 SLP042 T00800053 TSNO $

TAF AMD TAF ETAD
Valide du 22 à 21h jusqu'au 24 à 01h UTC


222059Z 2221/2401 20009KT 9999 SKC QNH2963INS
BECMG 2303/2304 20012G20KT 9999 FEW020 QNH2964INS
BECMG 2307/2308 20015G25KT 9999 BKN050 QNH2970INS
TEMPO 2308/2315 21025G35KT 520004
BECMG 2318/2319 23012G20KT 9000 -SHRA BKN020 QNH2980INS TX14/2314Z TN03/2300Z LAST NO AMDS AFT 2221 NEXT 2503
Pas de NOTAMs connus pour ce terrain.
1 SIGMET publié pour la FIR Langen (EDGG) :
 
Turbulence forte
EDGG SIGMET 1 VALID 230645/231000 EDZF
EDGG LANGEN FIR SEV TURB FCST APRX 80NM WID LINE BTN N4912 E00644 - N5116 E01021 2000FT/5000FT STNR NC=



MET'MAP, la Météo Aéronautique d'un coup d'oeil ! - Copyright ORBIFLY Décembre 2007 - Disclaimer

ORBIFLY MET'MAP TEAM :

Programmation & Développement : Alexandra Zaïnal
Conception & Développement : Baudouin d'Aumeries
Co-Programmation & Développement : Marc-Olivier Méhu
Soutien technique & logistique : Manuel Goepfert

Contact : metmap@orbifly.com




SOURCES & CREDITS :

   NOAA